createdAt,value
2019-01-23T00:01:29.854Z,98724.20
2019-01-23T00:04:35.560Z,98730.84
2019-01-23T00:07:41.259Z,98725.87
2019-01-23T00:10:46.987Z,98694.44
2019-01-23T00:13:52.907Z,98689.59
2019-01-23T00:16:58.829Z,98685.10
2019-01-23T00:20:05.034Z,98694.56
2019-01-23T00:23:10.722Z,98684.23
2019-01-23T00:26:16.427Z,98679.38
2019-01-23T00:29:22.230Z,98663.41
2019-01-23T00:32:28.299Z,98671.83
2019-01-23T00:35:34.011Z,98666.45
2019-01-23T00:38:39.730Z,98671.64
2019-01-23T00:41:45.554Z,98681.53
2019-01-23T00:44:51.266Z,98672.43
2019-01-23T00:47:56.971Z,98668.45
2019-01-23T00:51:02.678Z,98673.41
2019-01-23T00:54:08.603Z,98686.53
2019-01-23T00:57:14.301Z,98691.58
2019-01-23T01:00:22.677Z,98683.85
2019-01-23T01:03:28.377Z,98689.47
2019-01-23T01:06:34.235Z,98691.37
2019-01-23T01:09:39.950Z,98701.16
2019-01-23T01:12:45.766Z,98701.25
2019-01-23T01:15:52.585Z,98687.67
2019-01-23T01:18:58.413Z,98684.30
2019-01-23T01:22:04.444Z,98676.79
2019-01-23T01:25:12.511Z,98679.05
2019-01-23T01:28:18.316Z,98666.04
2019-01-23T01:31:24.127Z,98667.24
2019-01-23T01:34:29.934Z,98665.16
2019-01-23T01:37:35.664Z,98661.05
2019-01-23T01:40:41.484Z,98656.09
2019-01-23T01:43:47.214Z,98636.48
2019-01-23T01:46:53.008Z,98652.67
2019-01-23T01:49:58.893Z,98655.87
2019-01-23T01:53:04.729Z,98647.77
2019-01-23T01:56:10.506Z,98640.88
2019-01-23T01:59:16.252Z,98645.16
2019-01-23T02:02:22.085Z,98636.14
2019-01-23T02:05:27.930Z,98634.97
2019-01-23T02:08:33.631Z,98625.39
2019-01-23T02:11:39.337Z,98612.84
2019-01-23T02:14:45.062Z,98610.10
2019-01-23T02:17:51.083Z,98627.91
2019-01-23T02:20:57.237Z,98619.48
2019-01-23T02:24:02.921Z,98622.61
2019-01-23T02:27:08.649Z,98626.76
2019-01-23T02:30:15.858Z,98630.86
2019-01-23T02:33:21.681Z,98626.73
2019-01-23T02:36:27.432Z,98633.14
2019-01-23T02:39:33.136Z,98636.01
2019-01-23T02:42:38.867Z,98634.59
2019-01-23T02:45:44.568Z,98636.59
2019-01-23T02:48:51.385Z,98637.02
2019-01-23T02:51:57.081Z,98643.66
2019-01-23T02:55:02.893Z,98630.77
2019-01-23T02:58:08.700Z,98638.06
2019-01-23T03:01:14.401Z,98645.03
2019-01-23T03:04:20.108Z,98641.09
2019-01-23T03:07:27.273Z,98634.97
2019-01-23T03:10:33.124Z,98623.34
2019-01-23T03:13:38.812Z,98618.50
2019-01-23T03:16:44.629Z,98625.27
2019-01-23T03:19:50.385Z,98624.84
2019-01-23T03:22:56.089Z,98613.87
2019-01-23T03:26:01.796Z,98612.63
2019-01-23T03:29:07.584Z,98623.03
2019-01-23T03:32:13.399Z,98617.09
2019-01-23T03:35:19.491Z,98599.90
2019-01-23T03:38:25.236Z,98606.05
2019-01-23T03:41:30.973Z,98604.16
2019-01-23T03:44:36.686Z,98600.63
2019-01-23T03:47:42.724Z,98598.05
2019-01-23T03:50:48.558Z,98605.53
2019-01-23T03:53:54.296Z,98604.16
2019-01-23T03:57:00.115Z,98601.77
2019-01-23T04:00:07.805Z,98615.92
2019-01-23T04:03:13.612Z,98602.09
2019-01-23T04:06:19.345Z,98597.87
2019-01-23T04:09:26.042Z,98621.59
2019-01-23T04:12:31.766Z,98634.69
2019-01-23T04:15:37.653Z,98613.70
2019-01-23T04:18:43.487Z,98614.90
2019-01-23T04:21:49.187Z,98619.14
2019-01-23T04:24:54.894Z,98626.61
2019-01-23T04:28:00.609Z,98635.01
2019-01-23T04:31:06.448Z,98635.10
2019-01-23T04:34:12.162Z,98632.33
2019-01-23T04:37:17.900Z,98628.73
2019-01-23T04:40:23.578Z,98634.39
2019-01-23T04:43:29.287Z,98627.30
2019-01-23T04:46:34.979Z,98625.58
2019-01-23T04:49:40.702Z,98636.56
2019-01-23T04:53:07.299Z,98645.50
2019-01-23T04:56:14.088Z,98635.02
2019-01-23T04:59:19.814Z,98641.59
2019-01-23T05:02:25.542Z,98631.45
2019-01-23T05:05:31.347Z,98633.27
2019-01-23T05:08:37.070Z,98644.70
2019-01-23T05:11:42.798Z,98660.09
2019-01-23T05:14:48.534Z,98670.11
2019-01-23T05:17:54.234Z,98652.89
2019-01-23T05:20:59.939Z,98667.16
2019-01-23T05:24:05.745Z,98656.31
2019-01-23T05:27:11.468Z,98654.22
2019-01-23T05:30:22.714Z,98653.66
2019-01-23T05:33:28.427Z,98655.64
2019-01-23T05:36:34.128Z,98654.95
2019-01-23T05:39:39.857Z,98667.50
2019-01-23T05:42:45.667Z,98664.56
2019-01-23T05:45:51.521Z,98652.09
2019-01-23T05:48:57.254Z,98661.91
2019-01-23T05:52:03.003Z,98660.09
2019-01-23T05:55:10.119Z,98663.30
2019-01-23T05:58:15.828Z,98664.09
2019-01-23T06:01:21.605Z,98658.05
2019-01-23T06:04:27.411Z,98668.66
2019-01-23T06:07:33.148Z,98651.69
2019-01-23T06:10:38.990Z,98670.70
2019-01-23T06:13:44.722Z,98674.22
2019-01-23T06:16:50.459Z,98672.24
2019-01-23T06:19:56.288Z,98680.47
2019-01-23T06:23:02.175Z,98691.09
2019-01-23T06:26:07.960Z,98671.92
2019-01-23T06:29:13.695Z,98670.62
2019-01-23T06:32:19.411Z,98663.61
2019-01-23T06:35:25.228Z,98653.82
2019-01-23T06:38:30.923Z,98664.84
2019-01-23T06:41:36.640Z,98660.01
2019-01-23T06:44:42.337Z,98661.97
2019-01-23T06:47:49.910Z,98664.05
2019-01-23T06:50:55.609Z,98663.33
2019-01-23T06:54:01.301Z,98664.66
2019-01-23T06:57:07.004Z,98680.80
2019-01-23T07:00:17.950Z,98672.52
2019-01-23T07:03:23.871Z,98675.47
2019-01-23T07:06:29.591Z,98657.47
2019-01-23T07:09:35.311Z,98649.88
2019-01-23T07:12:41.273Z,98644.98
2019-01-23T07:15:46.984Z,98666.55
2019-01-23T07:18:53.287Z,98657.89
2019-01-23T07:21:58.989Z,98655.30
2019-01-23T07:25:05.548Z,98655.59
2019-01-23T07:28:11.468Z,98661.48
2019-01-23T07:31:17.276Z,98672.94
2019-01-23T07:34:22.981Z,98678.06
2019-01-23T07:37:28.698Z,98680.53
2019-01-23T07:40:34.843Z,98665.80
2019-01-23T07:43:40.559Z,98662.31
2019-01-23T07:46:46.385Z,98655.22
2019-01-23T07:49:52.081Z,98663.36
2019-01-23T07:52:58.865Z,98652.56
2019-01-23T07:56:04.675Z,98648.42
2019-01-23T07:59:10.397Z,98634.07
2019-01-23T08:02:16.115Z,98630.10
2019-01-23T08:05:24.671Z,98640.78
2019-01-23T08:08:30.393Z,98640.37
2019-01-23T08:11:36.101Z,98650.39
2019-01-23T08:14:42.261Z,98628.63
2019-01-23T08:17:48.392Z,98643.34
2019-01-23T08:20:54.215Z,98655.03
2019-01-23T08:23:59.989Z,98665.72
2019-01-23T08:27:07.104Z,98673.05
2019-01-23T08:30:15.476Z,98660.58
2019-01-23T08:33:21.285Z,98644.94
2019-01-23T08:36:26.988Z,98641.00
2019-01-23T08:39:32.692Z,98647.20
2019-01-23T08:42:38.394Z,98642.69
2019-01-23T08:45:44.105Z,98622.98
2019-01-23T08:48:49.979Z,98613.64
2019-01-23T08:51:55.684Z,98633.36
2019-01-23T08:55:01.452Z,98610.52
2019-01-23T08:58:08.061Z,98625.25
2019-01-23T09:01:13.883Z,98611.53
2019-01-23T09:04:19.713Z,98606.13
2019-01-23T09:07:25.433Z,98605.99
2019-01-23T09:10:31.382Z,98597.42
2019-01-23T09:13:37.091Z,98581.09
2019-01-23T09:16:44.031Z,98576.39
2019-01-23T09:19:49.760Z,98559.03
2019-01-23T09:22:55.567Z,98551.23
2019-01-23T09:26:01.411Z,98538.14
2019-01-23T09:29:07.575Z,98533.52
2019-01-23T09:32:55.511Z,98535.27
2019-01-23T09:36:41.065Z,98537.73
2019-01-23T09:40:05.002Z,98537.84
2019-01-23T09:43:50.629Z,98553.29
2019-01-23T09:47:11.703Z,98547.92
2019-01-23T09:50:35.522Z,98551.59
2019-01-23T09:54:05.509Z,98535.67
2019-01-23T09:57:11.260Z,98535.29
2019-01-23T10:00:20.805Z,98529.19
2019-01-23T10:03:26.634Z,98515.41
2019-01-23T10:06:32.345Z,98510.22
2019-01-23T10:09:39.220Z,98508.33
2019-01-23T10:12:45.012Z,98514.91
2019-01-23T10:15:53.985Z,98504.59
2019-01-23T10:18:59.774Z,98514.16
2019-01-23T10:22:05.782Z,98505.75
2019-01-23T10:25:11.713Z,98503.73
2019-01-23T10:28:17.414Z,98489.44
2019-01-23T10:31:23.230Z,98493.59
2019-01-23T10:34:28.957Z,98483.14
2019-01-23T10:37:34.662Z,98492.06
2019-01-23T10:40:40.374Z,98473.09
2019-01-23T10:43:46.098Z,98483.27
2019-01-23T10:46:51.924Z,98453.49
2019-01-23T10:49:57.758Z,98440.45
2019-01-23T10:53:03.556Z,98443.26
2019-01-23T10:56:09.275Z,98421.65
2019-01-23T10:59:14.962Z,98431.13
2019-01-23T11:02:20.776Z,98426.59
2019-01-23T11:05:27.819Z,98416.84
2019-01-23T11:08:33.763Z,98405.64
2019-01-23T11:11:39.482Z,98399.06
2019-01-23T11:14:45.318Z,98413.38
2019-01-23T11:17:51.254Z,98423.54
2019-01-23T11:20:57.076Z,98429.45
2019-01-23T11:24:03.000Z,98418.70
2019-01-23T11:27:08.968Z,98419.67
2019-01-23T11:30:18.160Z,98416.14
2019-01-23T11:33:24.059Z,98401.44
2019-01-23T11:36:30.853Z,98396.93
2019-01-23T11:39:36.586Z,98391.76
2019-01-23T11:42:42.306Z,98397.62
2019-01-23T11:45:48.111Z,98396.64
2019-01-23T11:48:53.816Z,98390.52
2019-01-23T11:52:00.519Z,98402.86
2019-01-23T11:55:07.416Z,98394.41
2019-01-23T11:58:14.329Z,98395.09
2019-01-23T12:01:20.259Z,98373.84
2019-01-23T12:04:26.954Z,98380.27
2019-01-23T12:07:32.719Z,98387.58
2019-01-23T12:10:38.425Z,98377.95
2019-01-23T12:13:44.225Z,98378.06
2019-01-23T12:16:49.932Z,98375.98
2019-01-23T12:19:55.663Z,98372.02
2019-01-23T12:23:01.472Z,98375.14
2019-01-23T12:26:07.300Z,98367.91
2019-01-23T12:29:13.266Z,98373.53
2019-01-23T12:32:18.958Z,98375.82
2019-01-23T12:35:24.680Z,98372.61
2019-01-23T12:38:30.402Z,98365.41
2019-01-23T12:41:36.401Z,98361.13
2019-01-23T12:44:42.330Z,98361.41
2019-01-23T12:47:48.170Z,98355.59
2019-01-23T12:50:53.893Z,98342.90
2019-01-23T12:53:59.850Z,98357.05
2019-01-23T12:57:05.664Z,98353.41
2019-01-23T13:00:15.373Z,98358.74
2019-01-23T13:03:21.199Z,98356.45
2019-01-23T13:06:27.014Z,98345.03
2019-01-23T13:09:32.726Z,98348.55
2019-01-23T13:12:38.457Z,98337.58
2019-01-23T13:15:44.172Z,98336.89
2019-01-23T13:18:49.899Z,98341.83
2019-01-23T13:21:55.605Z,98314.22
2019-01-23T13:25:01.329Z,98317.45
2019-01-23T13:28:07.679Z,98317.30
2019-01-23T13:31:13.492Z,98316.67
2019-01-23T13:34:19.319Z,98333.41
2019-01-23T13:37:25.034Z,98321.67
2019-01-23T13:40:33.788Z,98311.09
2019-01-23T13:43:39.497Z,98303.97
2019-01-23T13:46:45.307Z,98298.48
2019-01-23T13:49:51.082Z,98309.28
2019-01-23T13:52:56.907Z,98288.77
2019-01-23T13:56:02.676Z,98290.77
2019-01-23T13:59:08.536Z,98319.39
2019-01-23T14:02:14.256Z,98309.91
2019-01-23T14:05:20.188Z,98308.63
2019-01-23T14:08:26.105Z,98308.43
2019-01-23T14:11:31.832Z,98293.68
2019-01-23T14:14:37.586Z,98287.38
2019-01-23T14:17:43.412Z,98286.56
2019-01-23T14:20:49.143Z,98290.12
2019-01-23T14:23:54.977Z,98286.52
2019-01-23T14:27:00.917Z,98270.54
2019-01-23T14:30:10.022Z,98295.80
2019-01-23T14:33:16.591Z,98300.72
2019-01-23T14:36:22.343Z,98291.66
2019-01-23T14:39:28.172Z,98273.20
2019-01-23T14:42:34.156Z,98279.22
2019-01-23T14:45:39.984Z,98272.28
2019-01-23T14:48:45.720Z,98261.37
2019-01-23T14:51:51.472Z,98264.00
2019-01-23T14:54:57.204Z,98268.39
2019-01-23T14:58:03.114Z,98276.71
2019-01-23T15:01:08.913Z,98266.78
2019-01-23T15:04:14.625Z,98279.27
2019-01-23T15:07:20.376Z,98269.58
2019-01-23T15:10:30.466Z,98255.86
2019-01-23T15:13:36.184Z,98268.88
2019-01-23T15:16:42.033Z,98277.56
2019-01-23T15:19:47.836Z,98250.48
2019-01-23T15:22:54.863Z,98264.53
2019-01-23T15:26:00.588Z,98237.00
2019-01-23T15:29:06.332Z,98263.41
2019-01-23T15:32:17.247Z,98258.63
2019-01-23T15:35:20.301Z,98261.72
2019-01-23T15:38:26.026Z,98256.25
2019-01-23T15:41:31.917Z,98245.72
2019-01-23T15:44:37.668Z,98222.41
2019-01-23T15:47:43.395Z,98234.11
2019-01-23T15:50:49.123Z,98209.51
2019-01-23T15:53:54.821Z,98224.17
2019-01-23T15:57:00.542Z,98203.83
2019-01-23T16:00:09.542Z,98194.95
2019-01-23T16:03:15.346Z,98190.02
2019-01-23T16:06:21.072Z,98201.33
2019-01-23T16:09:26.968Z,98198.45
2019-01-23T16:12:32.670Z,98190.47
2019-01-23T16:15:38.601Z,98188.97
2019-01-23T16:18:45.321Z,98187.89
2019-01-23T16:21:51.388Z,98195.30
2019-01-23T16:24:57.213Z,98185.83
2019-01-23T16:28:03.078Z,98177.43
2019-01-23T16:31:08.888Z,98185.97
2019-01-23T16:34:14.706Z,98187.10
2019-01-23T16:37:20.512Z,98189.81
2019-01-23T16:40:26.320Z,98179.27
2019-01-23T16:43:32.047Z,98194.12
2019-01-23T16:46:37.776Z,98207.63
2019-01-23T16:49:43.497Z,98185.82
2019-01-23T16:52:49.423Z,98183.10
2019-01-23T16:55:55.181Z,98174.19
2019-01-23T16:59:00.906Z,98180.69
2019-01-23T17:02:06.839Z,98167.52
2019-01-23T17:05:16.431Z,98148.22
2019-01-23T17:08:22.169Z,98147.22
2019-01-23T17:11:28.988Z,98143.63
2019-01-23T17:14:35.074Z,98145.92
2019-01-23T17:17:40.906Z,98135.66
2019-01-23T17:20:49.095Z,98131.27
2019-01-23T17:23:54.911Z,98134.89
2019-01-23T17:27:00.633Z,98149.66
2019-01-23T17:30:08.400Z,98137.49
2019-01-23T17:33:15.239Z,98148.67
2019-01-23T17:36:20.939Z,98144.30
2019-01-23T17:39:26.759Z,98144.31
2019-01-23T17:42:32.693Z,98147.97
2019-01-23T17:45:39.855Z,98143.28
2019-01-23T17:48:45.669Z,98141.31
2019-01-23T17:51:51.386Z,98133.56
2019-01-23T17:54:57.085Z,98146.92
2019-01-23T17:58:02.960Z,98143.70
2019-01-23T18:01:09.069Z,98101.25
2019-01-23T18:04:14.754Z,98094.27
2019-01-23T18:07:20.585Z,98093.63
2019-01-23T18:10:26.518Z,98102.92
2019-01-23T18:13:32.263Z,98083.94
2019-01-23T18:16:37.992Z,98105.48
2019-01-23T18:19:43.703Z,98119.42
2019-01-23T18:22:49.436Z,98121.36
2019-01-23T18:25:55.146Z,98123.48
2019-01-23T18:29:00.887Z,98127.70
2019-01-23T18:32:09.217Z,98116.02
2019-01-23T18:36:14.517Z,98114.13
2019-01-23T18:39:46.605Z,98129.02
2019-01-23T18:43:17.096Z,98139.91
2019-01-23T18:47:15.405Z,98111.63
2019-01-23T18:50:54.141Z,98106.11
2019-01-23T18:53:59.960Z,98113.89
2019-01-23T18:57:06.123Z,98083.59
2019-01-23T19:00:16.045Z,98065.91
2019-01-23T19:03:21.884Z,98045.58
2019-01-23T19:06:27.739Z,98010.53
2019-01-23T19:09:33.688Z,98015.89
2019-01-23T19:12:39.530Z,98006.64
2019-01-23T19:15:45.248Z,98000.16
2019-01-23T19:18:50.977Z,98001.45
2019-01-23T19:21:56.908Z,98020.59
2019-01-23T19:25:02.634Z,98044.77
2019-01-23T19:28:08.584Z,98055.14
2019-01-23T19:31:14.336Z,98037.98
2019-01-23T19:34:20.059Z,98042.49
2019-01-23T19:37:25.877Z,98046.09
2019-01-23T19:40:31.685Z,98049.50
2019-01-23T19:43:37.624Z,98050.31
2019-01-23T19:46:43.452Z,98043.34
2019-01-23T19:49:49.487Z,98041.72
2019-01-23T19:52:55.378Z,98033.76
2019-01-23T19:56:01.244Z,98022.88
2019-01-23T19:59:07.192Z,98017.01
2019-01-23T20:02:13.189Z,98016.23
2019-01-23T20:05:22.568Z,98013.63
2019-01-23T20:08:28.390Z,98005.02
2019-01-23T20:11:34.104Z,97998.05
2019-01-23T20:14:39.959Z,98014.27
2019-01-23T20:17:45.777Z,98028.39
2019-01-23T20:20:52.574Z,98015.55
2019-01-23T20:23:58.285Z,98018.83
2019-01-23T20:27:04.425Z,98005.17
2019-01-23T20:30:16.604Z,98000.98
2019-01-23T20:33:27.899Z,97995.26
2019-01-23T20:36:29.840Z,97965.09
2019-01-23T20:39:35.578Z,97969.00
2019-01-23T20:42:41.382Z,97966.59
2019-01-23T20:45:47.113Z,97964.81
2019-01-23T20:48:52.930Z,97948.41
2019-01-23T20:51:58.664Z,97942.09
2019-01-23T20:55:04.981Z,97949.23
2019-01-23T20:58:10.826Z,97944.37
2019-01-23T21:01:16.543Z,97938.84
2019-01-23T21:04:22.358Z,97939.67
2019-01-23T21:07:28.071Z,97940.63
2019-01-23T21:10:34.001Z,97928.95
2019-01-23T21:13:39.726Z,97932.50
2019-01-23T21:16:45.445Z,97920.52
2019-01-23T21:19:51.170Z,97924.90
2019-01-23T21:22:57.068Z,97908.81
2019-01-23T21:26:02.808Z,97923.22
2019-01-23T21:29:08.526Z,97919.78
2019-01-23T21:32:14.229Z,97917.98
2019-01-23T21:35:20.431Z,97917.97
2019-01-23T21:38:27.132Z,97915.69
2019-01-23T21:41:32.839Z,97907.89
2019-01-23T21:44:38.559Z,97921.02
2019-01-23T21:47:44.669Z,97919.05
2019-01-23T21:50:50.457Z,97913.17
2019-01-23T21:53:56.188Z,97901.31
2019-01-23T21:57:02.004Z,97906.40
2019-01-23T22:00:12.450Z,97896.64
2019-01-23T22:03:19.240Z,97881.08
2019-01-23T22:06:25.065Z,97872.94
2019-01-23T22:09:30.876Z,97873.08
2019-01-23T22:12:36.707Z,97860.19
2019-01-23T22:15:42.634Z,97877.88
2019-01-23T22:18:48.374Z,97872.27
2019-01-23T22:21:54.249Z,97871.94
2019-01-23T22:24:59.982Z,97864.05
2019-01-23T22:28:06.065Z,97857.08
2019-01-23T22:31:11.982Z,97860.09
2019-01-23T22:34:17.873Z,97856.63
2019-01-23T22:37:23.624Z,97828.25
2019-01-23T22:40:29.373Z,97822.23
2019-01-23T22:43:35.111Z,97816.58
2019-01-23T22:46:40.813Z,97808.66
2019-01-23T22:49:46.537Z,97802.48
2019-01-23T22:52:52.495Z,97785.73
2019-01-23T22:55:58.318Z,97769.01
2019-01-23T22:59:04.134Z,97775.80
2019-01-23T23:02:09.998Z,97767.68
2019-01-23T23:05:15.720Z,97783.48
2019-01-23T23:08:21.436Z,97793.27
2019-01-23T23:11:27.338Z,97790.61
2019-01-23T23:14:33.162Z,97782.69
2019-01-23T23:17:38.985Z,97783.63
2019-01-23T23:20:44.675Z,97774.80
2019-01-23T23:23:50.492Z,97782.34
2019-01-23T23:26:56.315Z,97779.87
2019-01-23T23:30:02.153Z,97773.16
2019-01-23T23:33:07.966Z,97790.46
2019-01-23T23:36:13.718Z,97799.22
2019-01-23T23:39:19.509Z,97795.41
2019-01-23T23:42:25.315Z,97793.87
2019-01-23T23:45:31.043Z,97798.00
2019-01-23T23:48:36.777Z,97794.84
2019-01-23T23:51:42.473Z,97789.48
2019-01-23T23:54:48.167Z,97792.64
2019-01-23T23:57:53.980Z,97790.45
